Time;durP1;ratioP1;P1;durP2;ratioP2;P2;SDS_P1;SDS_P2;PMS_P1;PMS_P2;Temp;Humidity;BMP_temperature;BMP_pressure;BME280_temperature;BME280_humidity;BME280_pressure;Samples;Min_cycle;Max_cycle;Signal;HPM_P1;HPM_P2
2022/10/30 00:01:03;;;;;;;14.87;8.00;;;15.50;99.90;;;;;;5007097;28;20230;-85
2022/10/30 00:03:29;;;;;;;12.80;6.77;;;15.60;99.90;;;;;;5021908;28;20223;-86
2022/10/30 00:05:55;;;;;;;12.27;7.60;;;15.50;99.90;;;;;;5022163;28;20215;-86
2022/10/30 00:08:24;;;;;;;17.03;7.60;;;15.60;99.90;;;;;;4989970;28;20285;-86
2022/10/30 00:10:50;;;;;;;9.47;6.03;;;15.50;99.90;;;;;;5006890;28;20238;-86
2022/10/30 00:13:16;;;;;;;10.67;5.93;;;15.50;99.90;;;;;;5005881;28;20227;-87
2022/10/30 00:15:47;;;;;;;10.30;6.60;;;15.50;99.90;;;;;;5006688;28;20707;-87
2022/10/30 00:18:13;;;;;;;13.17;7.27;;;15.50;99.90;;;;;;4989666;28;20234;-86
2022/10/30 00:20:39;;;;;;;11.27;7.77;;;15.50;99.90;;;;;;5005957;28;20198;-85
2022/10/30 00:23:05;;;;;;;11.93;7.93;;;15.50;99.90;;;;;;5005831;28;20235;-88
2022/10/30 00:25:30;;;;;;;13.70;7.47;;;15.50;99.90;;;;;;5005305;28;20696;-86
2022/10/30 00:27:56;;;;;;;8.60;6.77;;;15.40;99.90;;;;;;5005628;28;20316;-86
2022/10/30 00:30:22;;;;;;;10.47;6.63;;;15.50;99.90;;;;;;4989335;28;20215;-88
2022/10/30 00:32:47;;;;;;;13.33;6.50;;;15.40;99.90;;;;;;5005701;28;20218;-88
2022/10/30 00:35:13;;;;;;;15.80;7.40;;;15.40;99.90;;;;;;5006170;28;20710;-88
2022/10/30 00:37:39;;;;;;;10.57;6.83;;;15.40;99.90;;;;;;4988957;28;20214;-85
2022/10/30 00:40:05;;;;;;;11.80;6.17;;;15.30;99.90;;;;;;4989218;28;20466;-86
2022/10/30 00:42:31;;;;;;;8.50;6.93;;;15.30;99.90;;;;;;5006305;28;20755;-88
2022/10/30 00:44:57;;;;;;;11.30;6.77;;;15.30;99.90;;;;;;5005584;28;20706;-86
2022/10/30 00:47:39;;;;;;;12.43;6.70;;;15.30;99.90;;;;;;5006063;28;20192;-89
2022/10/30 00:50:10;;;;;;;15.20;6.37;;;15.30;99.90;;;;;;5006827;28;20573;-85
2022/10/30 00:52:47;;;;;;;10.33;6.77;;;15.30;99.90;;;;;;5006116;28;20230;-86
2022/10/30 00:55:22;;;;;;;11.13;6.50;;;15.30;99.90;;;;;;5021632;28;20219;-87
2022/10/30 00:57:49;;;;;;;12.27;5.43;;;15.20;99.90;;;;;;5006308;28;20226;-86
2022/10/30 01:00:18;;;;;;;16.20;7.27;;;15.30;99.90;;;;;;5005696;28;20230;-86
2022/10/30 01:02:44;;;;;;;17.67;6.70;;;15.30;99.90;;;;;;5005779;28;20203;-86
2022/10/30 01:05:16;;;;;;;9.67;6.57;;;15.30;99.90;;;;;;4989537;28;20226;-87
2022/10/30 01:07:41;;;;;;;10.90;5.73;;;15.30;99.90;;;;;;5005934;28;20183;-85
2022/10/30 01:10:08;;;;;;;7.97;5.63;;;15.40;99.90;;;;;;5006464;28;20266;-88
2022/10/30 01:12:34;;;;;;;8.33;5.97;;;15.40;99.90;;;;;;5009505;28;20222;-86
2022/10/30 01:15:00;;;;;;;9.67;5.57;;;15.30;99.90;;;;;;5010680;28;20615;-86
2022/10/30 01:17:55;;;;;;;9.47;5.73;;;15.30;99.90;;;;;;5009452;28;20187;-88
2022/10/30 01:20:42;;;;;;;11.67;6.13;;;15.30;99.90;;;;;;5001489;28;20206;-85
2022/10/30 01:23:24;;;;;;;10.10;5.57;;;15.40;99.90;;;;;;5010819;28;20234;-88
2022/10/30 01:26:11;;;;;;;9.57;5.37;;;15.40;99.90;;;;;;5009170;28;20557;-88
2022/10/30 01:28:48;;;;;;;9.03;5.30;;;15.40;99.90;;;;;;5010463;28;20322;-86
2022/10/30 01:31:46;;;;;;;12.67;5.07;;;15.40;99.90;;;;;;5009898;28;20269;-84
2022/10/30 01:34:31;;;;;;;13.63;6.10;;;15.40;99.90;;;;;;5010844;28;20256;-85
2022/10/30 01:37:02;;;;;;;8.70;5.87;;;15.40;99.90;;;;;;5010409;28;21044;-88
2022/10/30 01:39:34;;;;;;;11.60;5.73;;;15.30;99.90;;;;;;5009356;28;21023;-85
2022/10/30 01:42:08;;;;;;;8.77;5.67;;;15.30;99.90;;;;;;5009456;28;20213;-84
2022/10/30 01:44:34;;;;;;;10.07;6.27;;;15.20;99.90;;;;;;5009491;28;21167;-86
2022/10/30 01:47:40;;;;;;;10.80;5.93;;;15.20;99.90;;;;;;5009453;28;20222;-87
2022/10/30 01:50:35;;;;;;;8.23;5.47;;;15.20;99.90;;;;;;5009340;28;20302;-85
2022/10/30 01:53:20;;;;;;;7.70;5.43;;;15.20;99.90;;;;;;5010029;28;20211;-85
2022/10/30 01:56:15;;;;;;;14.37;6.33;;;15.20;99.90;;;;;;5024922;28;20198;-87
2022/10/30 01:59:01;;;;;;;7.40;5.97;;;15.10;99.90;;;;;;5018789;28;20560;-85
2022/10/30 02:01:32;;;;;;;12.50;5.20;;;15.10;99.90;;;;;;5010062;28;20887;-87
2022/10/30 02:03:58;;;;;;;7.40;5.17;;;15.00;99.90;;;;;;5008340;28;20219;-89
2022/10/30 02:06:24;;;;;;;6.17;4.70;;;15.10;99.90;;;;;;5008042;28;20269;-85
2022/10/30 02:08:53;;;;;;;8.93;5.13;;;15.10;99.90;;;;;;5009477;28;20631;-86
2022/10/30 02:11:20;;;;;;;7.67;5.77;;;15.10;99.90;;;;;;5002013;28;20298;-86
2022/10/30 02:13:45;;;;;;;6.37;4.57;;;15.00;99.90;;;;;;5007588;28;20223;-88
2022/10/30 02:16:11;;;;;;;9.10;5.30;;;15.00;99.90;;;;;;4991259;28;20227;-87
2022/10/30 02:18:37;;;;;;;11.40;5.17;;;15.00;99.90;;;;;;4991415;28;20243;-86
2022/10/30 02:21:03;;;;;;;12.87;7.20;;;15.00;99.90;;;;;;5007170;28;21030;-86
2022/10/30 02:23:29;;;;;;;9.27;5.83;;;15.00;99.90;;;;;;5009938;28;20195;-85
2022/10/30 02:25:54;;;;;;;6.50;4.70;;;15.00;99.90;;;;;;5009370;28;20224;-84
2022/10/30 02:28:20;;;;;;;7.00;5.73;;;15.00;99.90;;;;;;5023820;28;20227;-87
2022/10/30 02:30:46;;;;;;;19.10;7.10;;;14.90;99.90;;;;;;4991523;28;20215;-87
2022/10/30 02:33:11;;;;;;;10.70;4.73;;;15.00;99.90;;;;;;5007779;28;20227;-89
2022/10/30 02:35:37;;;;;;;12.27;6.57;;;15.00;99.90;;;;;;5007876;28;20192;-86
2022/10/30 02:38:03;;;;;;;8.77;5.23;;;15.00;99.90;;;;;;5009044;28;20207;-86
2022/10/30 02:40:29;;;;;;;12.27;4.83;;;14.90;99.90;;;;;;5007952;28;20756;-86
2022/10/30 02:42:54;;;;;;;8.00;5.30;;;14.90;99.90;;;;;;4991183;28;20303;-85
2022/10/30 02:45:20;;;;;;;12.63;5.90;;;15.00;99.90;;;;;;5008631;28;20324;-85
2022/10/30 02:47:46;;;;;;;14.53;6.90;;;15.00;99.90;;;;;;5007298;28;20183;-85
2022/10/30 02:50:12;;;;;;;10.53;6.73;;;15.00;99.90;;;;;;5008397;28;20195;-86
2022/10/30 02:52:38;;;;;;;21.83;6.37;;;15.00;99.90;;;;;;5008445;28;20338;-86
2022/10/30 02:55:04;;;;;;;15.77;5.60;;;15.00;99.90;;;;;;5007392;28;20315;-85
2022/10/30 02:57:30;;;;;;;9.23;6.00;;;15.00;99.90;;;;;;5008267;28;20224;-88
2022/10/30 02:59:56;;;;;;;12.03;7.27;;;15.00;99.90;;;;;;5008446;28;20254;-85
2022/10/30 03:02:22;;;;;;;9.03;6.40;;;14.90;99.90;;;;;;5008914;28;20961;-86
2022/10/30 03:04:48;;;;;;;9.53;6.33;;;14.90;99.90;;;;;;5006862;28;20226;-87
2022/10/30 03:07:13;;;;;;;10.20;5.53;;;14.90;99.90;;;;;;5008266;28;20250;-86
2022/10/30 03:09:39;;;;;;;8.40;4.77;;;14.90;99.90;;;;;;5007730;28;20251;-86
2022/10/30 03:12:05;;;;;;;11.90;6.57;;;14.90;99.90;;;;;;4990347;28;20231;-85
2022/10/30 03:14:31;;;;;;;8.07;6.03;;;14.90;99.90;;;;;;5008105;28;20199;-85
2022/10/30 03:16:56;;;;;;;9.50;6.13;;;14.80;99.90;;;;;;5006485;28;20979;-87
2022/10/30 03:19:22;;;;;;;10.40;6.27;;;14.80;99.90;;;;;;5008106;28;20242;-88
2022/10/30 03:21:48;;;;;;;16.10;6.20;;;14.80;99.90;;;;;;5006633;28;20337;-88
2022/10/30 03:24:14;;;;;;;11.07;7.23;;;14.80;99.90;;;;;;4990428;28;20239;-87
2022/10/30 03:26:40;;;;;;;8.07;6.37;;;14.70;99.90;;;;;;4990472;28;20207;-86
2022/10/30 03:29:05;;;;;;;10.53;5.30;;;14.70;99.90;;;;;;5008412;28;20195;-86
2022/10/30 03:31:31;;;;;;;9.43;5.50;;;14.70;99.90;;;;;;5007687;28;20891;-84
2022/10/30 03:33:57;;;;;;;8.27;5.40;;;14.70;99.90;;;;;;5005980;28;20692;-88
2022/10/30 03:36:24;;;;;;;12.60;6.50;;;14.70;99.90;;;;;;5006581;28;20301;-88
2022/10/30 03:38:50;;;;;;;14.67;7.23;;;14.70;99.90;;;;;;5006445;28;20219;-87
2022/10/30 03:41:16;;;;;;;17.20;5.13;;;14.70;99.90;;;;;;5008409;28;20203;-87
2022/10/30 03:43:42;;;;;;;10.27;5.97;;;14.70;99.90;;;;;;5007016;28;20229;-87
2022/10/30 03:46:08;;;;;;;13.67;5.87;;;14.60;99.90;;;;;;5006298;28;20281;-90
2022/10/30 03:48:34;;;;;;;21.37;6.97;;;14.60;99.90;;;;;;4990196;28;20230;-86
2022/10/30 03:51:00;;;;;;;12.60;6.40;;;14.60;99.90;;;;;;5007058;28;20219;-84
2022/10/30 03:53:28;;;;;;;11.37;5.50;;;14.60;99.90;;;;;;5006666;28;20230;-87
2022/10/30 03:55:59;;;;;;;24.60;6.53;;;14.50;99.90;;;;;;5006025;28;20258;-87
2022/10/30 03:58:26;;;;;;;15.70;6.63;;;14.50;99.90;;;;;;5006529;28;20262;-88
2022/10/30 04:00:52;;;;;;;12.73;6.63;;;14.50;99.90;;;;;;5005828;28;20250;-87
2022/10/30 04:03:18;;;;;;;11.47;6.60;;;14.50;99.90;;;;;;5006074;28;20223;-87
2022/10/30 04:05:44;;;;;;;13.13;6.27;;;14.50;99.90;;;;;;5006118;28;20674;-87
2022/10/30 04:08:12;;;;;;;8.27;6.30;;;14.50;99.90;;;;;;4990304;28;20187;-86
2022/10/30 04:10:45;;;;;;;8.57;6.50;;;14.40;99.90;;;;;;5005833;28;20326;-84
2022/10/30 04:13:13;;;;;;;11.37;7.20;;;14.40;99.90;;;;;;5007301;28;20692;-85
2022/10/30 04:15:39;;;;;;;9.27;6.70;;;14.40;99.90;;;;;;5006452;28;20322;-86
2022/10/30 04:18:05;;;;;;;10.93;5.97;;;14.40;99.90;;;;;;5005523;28;20219;-85
2022/10/30 04:20:31;;;;;;;12.53;6.83;;;14.40;99.90;;;;;;4989883;28;20277;-84
2022/10/30 04:23:06;;;;;;;10.07;6.03;;;14.40;99.90;;;;;;4988962;28;20274;-88
2022/10/30 04:25:35;;;;;;;11.73;6.57;;;14.40;99.90;;;;;;5005472;28;20265;-87
2022/10/30 04:28:01;;;;;;;11.43;6.67;;;14.40;99.90;;;;;;4989229;28;20700;-88
2022/10/30 04:30:27;;;;;;;10.50;6.73;;;14.40;99.90;;;;;;5022373;28;20223;-85
2022/10/30 04:32:54;;;;;;;15.70;6.37;;;14.40;99.90;;;;;;5005559;28;20759;-86
2022/10/30 04:35:25;;;;;;;12.73;7.00;;;14.40;99.90;;;;;;5006422;28;20186;-88
2022/10/30 04:37:52;;;;;;;9.53;6.50;;;14.40;99.90;;;;;;5006731;28;20231;-86
2022/10/30 04:40:18;;;;;;;14.97;7.27;;;14.40;99.90;;;;;;4999061;28;20246;-85
2022/10/30 04:42:47;;;;;;;8.53;5.87;;;14.30;99.90;;;;;;4992665;28;20325;-88
2022/10/30 04:45:13;;;;;;;10.47;5.93;;;14.30;99.90;;;;;;5004073;28;20222;-89
2022/10/30 04:47:38;;;;;;;16.60;7.00;;;14.20;99.90;;;;;;4999659;28;20183;-88
2022/10/30 04:50:05;;;;;;;11.13;6.63;;;14.20;99.90;;;;;;4989508;28;20218;-89
2022/10/30 04:52:30;;;;;;;9.40;5.90;;;14.20;99.90;;;;;;5000701;28;20708;-88
2022/10/30 04:54:56;;;;;;;11.93;5.93;;;14.20;99.90;;;;;;4989629;28;20223;-86
2022/10/30 04:57:22;;;;;;;10.43;6.87;;;14.10;99.90;;;;;;4993016;28;20314;-88
2022/10/30 04:59:47;;;;;;;15.90;7.50;;;14.00;99.90;;;;;;4972858;28;20187;-86
2022/10/30 05:02:13;;;;;;;18.60;6.70;;;14.00;99.90;;;;;;5004143;28;20195;-86
2022/10/30 05:04:39;;;;;;;16.10;6.50;;;14.00;99.90;;;;;;4979867;28;20225;-88
2022/10/30 05:07:06;;;;;;;8.40;5.67;;;14.00;99.90;;;;;;4979338;28;20228;-87
2022/10/30 05:09:32;;;;;;;13.17;5.57;;;14.00;99.90;;;;;;5003333;28;20219;-87
2022/10/30 05:11:57;;;;;;;12.27;6.23;;;14.00;99.90;;;;;;4988931;28;20234;-87
2022/10/30 05:14:23;;;;;;;7.83;5.57;;;14.00;99.90;;;;;;5007007;28;20262;-87
2022/10/30 05:16:49;;;;;;;11.20;5.57;;;14.00;99.90;;;;;;5005715;28;20238;-87
2022/10/30 05:19:15;;;;;;;10.77;6.47;;;13.90;99.90;;;;;;4987623;28;20219;-85
2022/10/30 05:21:40;;;;;;;15.47;8.67;;;14.00;99.90;;;;;;4969299;28;20239;-89
2022/10/30 05:24:06;;;;;;;12.27;6.80;;;14.00;99.90;;;;;;5003916;28;20238;-86
2022/10/30 05:26:32;;;;;;;13.40;6.23;;;14.00;99.90;;;;;;4989290;28;20199;-87
2022/10/30 05:28:58;;;;;;;29.93;8.30;;;13.90;99.90;;;;;;4989266;28;20203;-87
2022/10/30 05:31:24;;;;;;;8.57;5.97;;;13.90;99.90;;;;;;4972990;28;20227;-86
2022/10/30 05:33:49;;;;;;;19.27;5.67;;;13.90;99.90;;;;;;5006380;28;20285;-88
2022/10/30 05:36:15;;;;;;;17.67;8.30;;;13.90;99.90;;;;;;4998401;28;20222;-86
2022/10/30 05:38:41;;;;;;;9.03;6.13;;;13.80;99.90;;;;;;4972517;28;20184;-87
2022/10/30 05:41:06;;;;;;;20.20;8.63;;;13.80;99.90;;;;;;4987475;28;20194;-88
2022/10/30 05:43:32;;;;;;;9.47;6.33;;;13.80;99.90;;;;;;4998706;28;20869;-88
2022/10/30 05:45:58;;;;;;;17.70;6.40;;;13.80;99.90;;;;;;4988435;28;20227;-89
2022/10/30 05:48:23;;;;;;;12.60;6.50;;;13.80;99.90;;;;;;5005068;28;20230;-88
2022/10/30 05:50:49;;;;;;;7.33;5.40;;;13.70;99.90;;;;;;4988674;28;20273;-89
2022/10/30 05:53:15;;;;;;;11.57;6.63;;;13.80;99.90;;;;;;4996131;28;20220;-87
2022/10/30 05:55:41;;;;;;;10.03;6.90;;;13.70;99.90;;;;;;5006870;28;20321;-88
2022/10/30 05:58:06;;;;;;;12.40;5.97;;;13.70;99.90;;;;;;5004944;28;20660;-87
2022/10/30 06:00:35;;;;;;;10.40;7.07;;;13.70;99.90;;;;;;5006262;28;20219;-88
2022/10/30 06:03:02;;;;;;;13.57;5.87;;;13.70;99.90;;;;;;5004668;28;20219;-88
2022/10/30 06:05:33;;;;;;;14.13;7.30;;;13.70;99.90;;;;;;5001999;28;20186;-86
2022/10/30 06:07:59;;;;;;;20.13;7.23;;;13.70;99.90;;;;;;4991144;28;20219;-87
2022/10/30 06:10:26;;;;;;;9.93;6.50;;;13.60;99.90;;;;;;4984624;28;20669;-87
2022/10/30 06:12:56;;;;;;;12.63;6.40;;;13.60;99.90;;;;;;5024311;28;20266;-87
2022/10/30 06:15:22;;;;;;;10.80;7.00;;;13.60;99.90;;;;;;4992483;28;20315;-87
2022/10/30 06:17:49;;;;;;;9.10;5.83;;;13.70;99.90;;;;;;4992259;28;20192;-87
2022/10/30 06:20:16;;;;;;;18.77;7.33;;;13.60;99.90;;;;;;4989889;28;20184;-87
2022/10/30 06:22:53;;;;;;;13.43;6.47;;;13.60;99.90;;;;;;4997991;28;20651;-86
2022/10/30 06:25:19;;;;;;;11.47;7.33;;;13.60;99.90;;;;;;4998201;28;20250;-86
2022/10/30 06:27:45;;;;;;;14.50;7.17;;;13.60;99.90;;;;;;4992863;28;20215;-86
2022/10/30 06:30:11;;;;;;;11.27;6.77;;;13.60;99.90;;;;;;5022295;28;20242;-84
2022/10/30 06:32:36;;;;;;;26.53;5.97;;;13.60;99.90;;;;;;4975738;28;20735;-85
2022/10/30 06:35:02;;;;;;;16.20;7.80;;;13.60;99.90;;;;;;5000394;28;20626;-86
2022/10/30 06:37:29;;;;;;;14.93;7.70;;;13.60;99.90;;;;;;5004902;28;20219;-85
2022/10/30 06:39:54;;;;;;;9.80;7.10;;;13.60;99.90;;;;;;4991643;28;20306;-90
2022/10/30 06:42:20;;;;;;;10.77;7.43;;;13.70;99.90;;;;;;5004799;28;21171;-86
2022/10/30 06:44:47;;;;;;;12.33;6.93;;;13.70;99.90;;;;;;4991231;28;20201;-86
2022/10/30 06:47:14;;;;;;;10.60;6.20;;;13.70;99.90;;;;;;5008024;28;21080;-88
2022/10/30 06:49:40;;;;;;;17.63;8.03;;;13.80;99.90;;;;;;4989514;28;20233;-89
2022/10/30 06:52:05;;;;;;;14.70;9.10;;;13.90;99.90;;;;;;4991016;28;20239;-87
2022/10/30 06:54:31;;;;;;;13.27;7.00;;;13.90;99.90;;;;;;4975040;28;20234;-89
2022/10/30 06:56:57;;;;;;;12.23;8.60;;;14.10;99.90;;;;;;4975123;28;20863;-86
2022/10/30 06:59:22;;;;;;;12.40;7.57;;;14.20;99.90;;;;;;4992909;28;21037;-90
2022/10/30 07:01:48;;;;;;;20.83;7.87;;;14.40;99.90;;;;;;4974763;28;20301;-88
2022/10/30 07:04:14;;;;;;;12.17;7.47;;;14.50;99.90;;;;;;4988324;28;20254;-91
2022/10/30 07:06:40;;;;;;;23.70;8.40;;;14.50;99.90;;;;;;5001169;28;20211;-85
2022/10/30 07:09:06;;;;;;;16.97;8.80;;;14.70;99.90;;;;;;5004128;28;20219;-91
2022/10/30 07:11:31;;;;;;;15.20;7.80;;;14.80;99.90;;;;;;5000376;28;20215;-85
2022/10/30 07:13:57;;;;;;;17.00;8.87;;;14.90;99.90;;;;;;5005555;28;20206;-90
2022/10/30 07:16:23;;;;;;;15.63;8.37;;;15.20;99.90;;;;;;4975701;28;20285;-85
2022/10/30 07:18:49;;;;;;;13.90;7.60;;;15.50;99.90;;;;;;4989366;28;20613;-89
2022/10/30 07:21:15;;;;;;;15.83;8.30;;;15.90;99.90;;;;;;4987777;28;20228;-87
2022/10/30 07:23:41;;;;;;;15.17;8.30;;;15.80;99.90;;;;;;5014572;28;20726;-86
2022/10/30 07:26:07;;;;;;;13.00;8.77;;;15.50;99.90;;;;;;5010853;28;20195;-88
2022/10/30 07:28:33;;;;;;;11.40;7.80;;;15.40;99.90;;;;;;4994486;28;20623;-88
2022/10/30 07:31:01;;;;;;;11.43;7.90;;;15.40;99.90;;;;;;5009455;28;20215;-89
2022/10/30 07:33:33;;;;;;;16.13;7.23;;;15.50;99.90;;;;;;5003072;28;20297;-88
2022/10/30 07:36:00;;;;;;;16.47;6.87;;;15.60;99.90;;;;;;5025806;28;20271;-86
2022/10/30 07:38:27;;;;;;;13.27;7.97;;;15.70;99.90;;;;;;5020666;28;20187;-88
2022/10/30 07:40:53;;;;;;;12.63;7.97;;;15.80;99.90;;;;;;4994934;28;20222;-94
2022/10/30 07:43:19;;;;;;;24.10;9.70;;;16.00;99.90;;;;;;5018178;28;20276;-86
2022/10/30 07:45:45;;;;;;;12.93;7.60;;;16.00;99.90;;;;;;5009997;28;20219;-87
2022/10/30 07:48:11;;;;;;;15.83;9.80;;;16.20;99.90;;;;;;5007925;28;20218;-86
2022/10/30 07:50:36;;;;;;;11.80;8.93;;;16.40;99.90;;;;;;4996483;28;20190;-88
2022/10/30 07:53:02;;;;;;;26.87;9.60;;;17.10;99.90;;;;;;5008666;28;20682;-87
2022/10/30 07:55:28;;;;;;;20.20;11.77;;;18.00;99.90;;;;;;5019215;28;20305;-89
2022/10/30 07:57:54;;;;;;;21.90;11.83;;;18.80;99.90;;;;;;4994890;28;20214;-83
2022/10/30 08:00:19;;;;;;;15.57;8.13;;;19.50;99.90;;;;;;4996028;28;20288;-90
2022/10/30 08:02:49;;;;;;;17.37;8.63;;;19.70;99.90;;;;;;4993194;28;20190;-85
2022/10/30 08:05:15;;;;;;;14.53;7.87;;;19.70;99.90;;;;;;5023194;28;20222;-87
2022/10/30 08:07:41;;;;;;;20.90;7.60;;;20.10;99.90;;;;;;5009724;28;20807;-86
2022/10/30 08:10:07;;;;;;;15.63;6.83;;;20.80;99.90;;;;;;5007642;28;20281;-86
2022/10/30 08:12:35;;;;;;;8.87;5.03;;;20.80;99.90;;;;;;5027537;28;20238;-89
2022/10/30 08:15:00;;;;;;;9.40;5.80;;;20.80;99.90;;;;;;5021954;28;20263;-85
2022/10/30 08:17:26;;;;;;;6.87;5.20;;;20.00;99.90;;;;;;5012756;28;20198;-92
2022/10/30 08:19:52;;;;;;;9.27;5.53;;;19.40;99.90;;;;;;4992816;28;20215;-86
2022/10/30 08:22:18;;;;;;;8.83;6.27;;;19.00;99.90;;;;;;5003796;28;20601;-87
2022/10/30 08:24:44;;;;;;;6.20;4.93;;;18.60;99.90;;;;;;4992781;28;20233;-87
2022/10/30 08:27:09;;;;;;;8.83;5.43;;;18.20;99.90;;;;;;4988551;28;20589;-85
2022/10/30 08:29:35;;;;;;;12.83;7.10;;;18.10;99.90;;;;;;5025049;28;20201;-86
2022/10/30 08:32:01;;;;;;;13.27;6.77;;;17.90;99.90;;;;;;5025666;28;20222;-88
2022/10/30 08:34:30;;;;;;;8.00;5.77;;;17.90;99.90;;;;;;5008813;28;20222;-87
2022/10/30 08:36:56;;;;;;;10.50;5.73;;;17.90;99.90;;;;;;5025032;28;20261;-88
2022/10/30 08:39:22;;;;;;;12.60;5.97;;;18.00;99.90;;;;;;5000545;28;20281;-87
2022/10/30 08:41:47;;;;;;;13.20;7.67;;;17.80;99.90;;;;;;4990867;28;20677;-87
2022/10/30 08:44:13;;;;;;;8.43;6.10;;;18.00;99.90;;;;;;4992389;28;21033;-89
2022/10/30 08:46:39;;;;;;;11.33;5.67;;;18.00;99.90;;;;;;4999002;28;20214;-88
2022/10/30 08:49:05;;;;;;;17.00;6.33;;;18.10;99.90;;;;;;5014555;28;20206;-88
2022/10/30 08:51:34;;;;;;;10.07;6.67;;;18.00;99.90;;;;;;5000465;28;20318;-90
2022/10/30 08:54:00;;;;;;;14.60;6.23;;;18.00;99.90;;;;;;5022068;28;20309;-89
2022/10/30 08:56:26;;;;;;;10.20;6.20;;;18.10;99.90;;;;;;5012406;28;20716;-89
2022/10/30 08:58:52;;;;;;;15.33;6.07;;;18.00;99.90;;;;;;5008423;28;20221;-88
2022/10/30 09:01:18;;;;;;;13.57;6.07;;;18.10;99.90;;;;;;5007665;28;20222;-88
2022/10/30 09:03:44;;;;;;;12.17;6.53;;;18.10;99.90;;;;;;5023087;28;20304;-85
2022/10/30 09:06:10;;;;;;;11.67;7.17;;;18.20;99.90;;;;;;4992418;28;20214;-84
2022/10/30 09:08:36;;;;;;;8.63;6.87;;;18.20;99.90;;;;;;5009016;28;20198;-85
2022/10/30 09:11:02;;;;;;;11.00;6.03;;;18.40;99.90;;;;;;5014637;28;20277;-87
2022/10/30 09:13:28;;;;;;;11.43;5.47;;;18.30;99.90;;;;;;5025923;28;20257;-86
2022/10/30 09:15:58;;;;;;;12.30;6.47;;;18.20;99.90;;;;;;5008245;28;20226;-86
2022/10/30 09:18:23;;;;;;;12.60;6.77;;;18.20;99.90;;;;;;5025990;28;20218;-86
2022/10/30 09:20:49;;;;;;;9.93;6.80;;;18.30;99.90;;;;;;5023551;28;20229;-87
2022/10/30 09:23:15;;;;;;;16.10;6.20;;;18.50;99.90;;;;;;5028263;28;20248;-86
2022/10/30 09:25:40;;;;;;;13.17;6.97;;;18.30;99.90;;;;;;5035336;28;20241;-84
2022/10/30 09:28:06;;;;;;;14.87;6.60;;;18.20;99.90;;;;;;4999845;28;20291;-86
2022/10/30 09:30:32;;;;;;;13.47;5.83;;;18.30;99.90;;;;;;5012888;28;20242;-83
2022/10/30 09:33:00;;;;;;;12.43;6.63;;;18.30;99.90;;;;;;5017065;28;20231;-86
2022/10/30 09:35:27;;;;;;;12.47;7.00;;;18.30;99.90;;;;;;5029145;28;20193;-84
2022/10/30 09:37:53;;;;;;;9.97;6.17;;;18.30;99.90;;;;;;4999903;28;20676;-87
2022/10/30 09:40:22;;;;;;;10.03;5.97;;;18.40;99.90;;;;;;5035702;28;20671;-86
2022/10/30 09:42:49;;;;;;;14.27;5.73;;;18.50;99.90;;;;;;5038133;28;20218;-86
2022/10/30 09:45:47;;;;;;;13.00;6.30;;;18.60;99.90;;;;;;5036040;28;20225;-86
2022/10/30 09:48:33;;;;;;;10.57;6.57;;;18.50;99.90;;;;;;5032842;28;20562;-86
2022/10/30 09:51:13;;;;;;;16.77;5.83;;;18.60;99.90;;;;;;5029713;28;20242;-87
2022/10/30 09:53:57;;;;;;;10.30;5.93;;;18.70;99.90;;;;;;5032551;28;20206;-88
2022/10/30 09:56:30;;;;;;;12.27;7.17;;;18.80;99.90;;;;;;5046977;28;20199;-84
2022/10/30 09:59:35;;;;;;;8.83;6.43;;;18.90;99.90;;;;;;5017293;28;20219;-84
2022/10/30 10:02:31;;;;;;;13.30;6.60;;;19.00;99.90;;;;;;5017579;28;20210;-84
2022/10/30 10:05:22;;;;;;;11.30;7.17;;;19.10;99.90;;;;;;5027824;28;20215;-85
2022/10/30 10:07:51;;;;;;;13.47;6.03;;;19.30;99.90;;;;;;4999484;28;20235;-83
2022/10/30 10:10:26;;;;;;;12.37;6.10;;;19.30;99.90;;;;;;5029398;28;20214;-85
2022/10/30 10:12:54;;;;;;;12.80;7.23;;;19.30;99.90;;;;;;5017323;28;20229;-85
2022/10/30 10:15:42;;;;;;;9.73;6.23;;;19.20;99.90;;;;;;4987338;28;20220;-84
2022/10/30 10:18:18;;;;;;;13.10;6.60;;;19.20;99.90;;;;;;5011714;28;20209;-85
2022/10/30 10:20:49;;;;;;;18.47;7.27;;;19.10;99.90;;;;;;5027336;28;20231;-85
2022/10/30 10:23:20;;;;;;;11.03;6.70;;;19.20;99.90;;;;;;5037088;28;20643;-87
2022/10/30 10:25:52;;;;;;;14.30;6.00;;;19.20;99.90;;;;;;5012172;28;20278;-86
2022/10/30 10:28:45;;;;;;;11.00;6.93;;;19.30;99.90;;;;;;5011623;28;20226;-86
2022/10/30 10:31:29;;;;;;;13.83;5.97;;;19.40;99.90;;;;;;5013948;28;20245;-85
2022/10/30 10:34:24;;;;;;;8.90;5.37;;;19.30;99.90;;;;;;5012252;28;20226;-86
2022/10/30 10:37:19;;;;;;;9.60;6.13;;;19.60;99.90;;;;;;4994110;28;20234;-82
2022/10/30 10:39:54;;;;;;;9.50;6.27;;;19.60;99.90;;;;;;4992732;28;20743;-86
2022/10/30 10:42:44;;;;;;;10.43;6.07;;;19.60;99.90;;;;;;5007555;28;20250;-83
2022/10/30 10:45:55;;;;;;;9.60;6.67;;;19.80;99.90;;;;;;5007857;28;20219;-85
2022/10/30 10:48:51;;;;;;;15.47;6.57;;;19.70;99.90;;;;;;5004338;28;20230;-85
2022/10/30 10:51:21;;;;;;;9.23;6.10;;;19.80;99.90;;;;;;5020502;28;20222;-85
2022/10/30 10:53:57;;;;;;;13.57;7.03;;;19.70;99.90;;;;;;5026991;28;20187;-81
2022/10/30 10:56:31;;;;;;;10.27;6.23;;;20.00;99.90;;;;;;5027293;28;20213;-87
2022/10/30 10:59:03;;;;;;;11.53;6.27;;;20.50;99.90;;;;;;5021426;28;21010;-83
2022/10/30 11:01:38;;;;;;;17.30;6.43;;;21.20;99.90;;;;;;5020835;28;20215;-83
2022/10/30 11:04:15;;;;;;;11.70;6.43;;;22.00;99.90;;;;;;5012380;28;20242;-83
2022/10/30 11:06:47;;;;;;;13.70;6.90;;;22.40;99.90;;;;;;5005670;28;20226;-86
2022/10/30 11:09:35;;;;;;;11.67;6.20;;;22.90;99.90;;;;;;5011153;28;20231;-85
2022/10/30 11:12:03;;;;;;;9.03;5.67;;;23.30;99.90;;;;;;5030408;28;20227;-84
2022/10/30 11:14:31;;;;;;;12.10;5.73;;;23.90;99.90;;;;;;5026280;28;20206;-83
2022/10/30 11:17:23;;;;;;;13.20;6.47;;;24.60;99.90;;;;;;5009387;28;20242;-83
2022/10/30 11:20:00;;;;;;;10.27;6.00;;;25.10;99.90;;;;;;5029083;28;20270;-85
2022/10/30 11:22:39;;;;;;;13.27;6.47;;;24.90;99.90;;;;;;5041659;28;20242;-86
2022/10/30 11:25:19;;;;;;;16.73;6.90;;;24.80;99.90;;;;;;5022021;28;20241;-83
2022/10/30 11:27:57;;;;;;;11.65;5.78;;;24.50;99.90;;;;;;5037747;28;20241;-84
2022/10/30 11:30:27;;;;;;;11.75;5.57;;;24.20;99.90;;;;;;5021777;28;20459;-84
2022/10/30 11:32:58;;;;;;;14.60;6.05;;;24.10;99.90;;;;;;4997306;28;20311;-84
2022/10/30 11:35:24;;;;;;;14.10;6.45;;;24.60;99.90;;;;;;5008274;28;20180;-84
2022/10/30 11:38:11;;;;;;;10.00;5.30;;;24.80;99.90;;;;;;5008998;28;20273;-85
2022/10/30 11:40:50;;;;;;;10.75;5.82;;;25.00;99.90;;;;;;5039033;28;20213;-85
2022/10/30 11:43:33;;;;;;;12.30;5.72;;;24.80;99.90;;;;;;5031270;28;20283;-84
2022/10/30 11:45:59;;;;;;;10.38;5.93;;;25.20;99.90;;;;;;5039295;28;20298;-85
2022/10/30 11:48:31;;;;;;;9.45;4.70;;;25.20;99.90;;;;;;5010045;28;20580;-84
2022/10/30 11:51:02;;;;;;;8.98;5.55;;;24.20;99.90;;;;;;5046281;28;20222;-84
2022/10/30 11:53:38;;;;;;;12.60;5.53;;;23.70;99.90;;;;;;5043222;28;20214;-86
2022/10/30 11:56:14;;;;;;;8.07;5.32;;;23.60;99.90;;;;;;5013913;28;20214;-85
2022/10/30 11:58:47;;;;;;;14.23;5.97;;;23.40;99.90;;;;;;5040413;28;20222;-83
2022/10/30 12:01:24;;;;;;;13.63;5.68;;;23.10;99.90;;;;;;5031648;28;20248;-84
2022/10/30 12:03:50;;;;;;;12.55;5.15;;;22.60;99.90;;;;;;5021557;28;20215;-83
2022/10/30 12:06:23;;;;;;;7.45;5.25;;;22.40;99.90;;;;;;5015247;28;20237;-83
2022/10/30 12:09:03;;;;;;;6.30;4.90;;;22.50;99.90;;;;;;5044975;28;20214;-84
2022/10/30 12:11:34;;;;;;;8.52;4.82;;;22.20;99.90;;;;;;5037071;28;20206;-81
2022/10/30 12:14:03;;;;;;;10.32;5.47;;;22.00;99.90;;;;;;5044503;28;20268;-83
2022/10/30 12:16:32;;;;;;;8.13;4.37;;;21.70;99.90;;;;;;5037474;28;20222;-83
2022/10/30 12:19:19;;;;;;;8.93;5.72;;;21.50;99.90;;;;;;5030894;28;20241;-84
2022/10/30 12:22:00;;;;;;;8.93;4.87;;;21.70;99.90;;;;;;5025801;28;20326;-83
2022/10/30 12:24:52;;;;;;;7.93;5.25;;;21.80;99.90;;;;;;5015234;28;20234;-84
2022/10/30 12:27:19;;;;;;;8.03;4.60;;;21.70;99.90;;;;;;5037414;28;20223;-85
2022/10/30 12:30:04;;;;;;;9.23;4.90;;;22.00;99.90;;;;;;5004667;28;20195;-84
2022/10/30 12:32:48;;;;;;;12.00;5.43;;;22.10;99.90;;;;;;5032638;28;20309;-83
2022/10/30 12:35:45;;;;;;;10.23;4.90;;;22.00;99.90;;;;;;5021777;28;20271;-86
2022/10/30 12:38:33;;;;;;;10.27;5.27;;;21.70;99.90;;;;;;5015011;28;20229;-84
2022/10/30 12:41:35;;;;;;;12.37;5.70;;;21.80;99.90;;;;;;4999591;28;20223;-85
2022/10/30 12:44:21;;;;;;;10.07;5.60;;;21.90;99.90;;;;;;5018651;28;20215;-85
2022/10/30 12:47:01;;;;;;;10.38;4.22;;;21.80;99.90;;;;;;4997814;28;20219;-83
2022/10/30 12:49:30;;;;;;;9.97;5.17;;;21.60;99.90;;;;;;5004963;28;20212;-84
2022/10/30 12:52:06;;;;;;;9.47;4.53;;;21.50;99.90;;;;;;5016217;28;20258;-84
2022/10/30 12:54:34;;;;;;;8.03;4.67;;;21.50;99.90;;;;;;5002070;28;20425;-86
2022/10/30 12:57:27;;;;;;;16.07;4.77;;;21.40;99.90;;;;;;5003738;28;20222;-84